sensor_id;sensor_type;location;lat;lon;timestamp;P1;durP1;ratioP1;P2;durP2;ratioP2
55220;SDS011;41089;51.448;6.604;2022-08-21T00:01:56;10.38;;;4.20;;
55220;SDS011;41089;51.448;6.604;2022-08-21T00:07:57;8.37;;;5.37;;
55220;SDS011;41089;51.448;6.604;2022-08-21T00:13:57;12.00;;;5.20;;
55220;SDS011;41089;51.448;6.604;2022-08-21T00:19:58;9.63;;;4.90;;
55220;SDS011;41089;51.448;6.604;2022-08-21T00:25:58;8.77;;;4.93;;
55220;SDS011;41089;51.448;6.604;2022-08-21T00:31:59;10.60;;;5.40;;
55220;SDS011;41089;51.448;6.604;2022-08-21T00:38:00;9.20;;;4.93;;
55220;SDS011;41089;51.448;6.604;2022-08-21T00:44:02;10.70;;;5.15;;
55220;SDS011;41089;51.448;6.604;2022-08-21T00:50:04;9.43;;;5.57;;
55220;SDS011;41089;51.448;6.604;2022-08-21T00:56:27;11.88;;;5.78;;
55220;SDS011;41089;51.448;6.604;2022-08-21T01:02:28;9.85;;;6.32;;
55220;SDS011;41089;51.448;6.604;2022-08-21T01:08:29;9.93;;;5.97;;
55220;SDS011;41089;51.448;6.604;2022-08-21T01:14:30;7.38;;;4.95;;
55220;SDS011;41089;51.448;6.604;2022-08-21T01:20:31;10.30;;;6.30;;
55220;SDS011;41089;51.448;6.604;2022-08-21T01:26:33;7.10;;;4.82;;
55220;SDS011;41089;51.448;6.604;2022-08-21T01:32:35;10.32;;;5.70;;
55220;SDS011;41089;51.448;6.604;2022-08-21T01:38:35;9.82;;;5.35;;
55220;SDS011;41089;51.448;6.604;2022-08-21T01:44:36;10.83;;;5.53;;
55220;SDS011;41089;51.448;6.604;2022-08-21T01:50:37;7.65;;;5.63;;
55220;SDS011;41089;51.448;6.604;2022-08-21T01:56:39;9.90;;;5.80;;
55220;SDS011;41089;51.448;6.604;2022-08-21T02:02:41;11.25;;;6.80;;
55220;SDS011;41089;51.448;6.604;2022-08-21T02:08:42;10.73;;;6.18;;
55220;SDS011;41089;51.448;6.604;2022-08-21T02:14:42;9.13;;;5.63;;
55220;SDS011;41089;51.448;6.604;2022-08-21T02:20:45;10.45;;;6.07;;
55220;SDS011;41089;51.448;6.604;2022-08-21T02:26:46;7.63;;;6.07;;
55220;SDS011;41089;51.448;6.604;2022-08-21T02:32:47;9.50;;;6.28;;
55220;SDS011;41089;51.448;6.604;2022-08-21T02:38:47;9.50;;;5.57;;
55220;SDS011;41089;51.448;6.604;2022-08-21T02:44:49;12.88;;;7.63;;
55220;SDS011;41089;51.448;6.604;2022-08-21T02:50:57;11.55;;;7.13;;
55220;SDS011;41089;51.448;6.604;2022-08-21T02:56:59;8.70;;;6.38;;
55220;SDS011;41089;51.448;6.604;2022-08-21T03:03:00;9.63;;;5.73;;
55220;SDS011;41089;51.448;6.604;2022-08-21T03:09:00;8.93;;;5.90;;
55220;SDS011;41089;51.448;6.604;2022-08-21T03:15:05;9.52;;;5.70;;
55220;SDS011;41089;51.448;6.604;2022-08-21T03:21:17;12.32;;;8.35;;
55220;SDS011;41089;51.448;6.604;2022-08-21T03:27:29;8.13;;;6.78;;
55220;SDS011;41089;51.448;6.604;2022-08-21T03:33:32;8.40;;;6.35;;
55220;SDS011;41089;51.448;6.604;2022-08-21T03:39:33;9.05;;;5.78;;
55220;SDS011;41089;51.448;6.604;2022-08-21T03:45:34;11.25;;;6.97;;
55220;SDS011;41089;51.448;6.604;2022-08-21T03:51:34;11.55;;;6.55;;
55220;SDS011;41089;51.448;6.604;2022-08-21T03:57:35;7.57;;;5.97;;
55220;SDS011;41089;51.448;6.604;2022-08-21T04:03:36;9.17;;;6.43;;
55220;SDS011;41089;51.448;6.604;2022-08-21T04:09:37;10.15;;;6.90;;
55220;SDS011;41089;51.448;6.604;2022-08-21T04:15:38;10.25;;;8.57;;
55220;SDS011;41089;51.448;6.604;2022-08-21T04:21:39;9.88;;;7.28;;
55220;SDS011;41089;51.448;6.604;2022-08-21T04:27:39;12.90;;;9.63;;
55220;SDS011;41089;51.448;6.604;2022-08-21T04:33:40;9.45;;;8.20;;
55220;SDS011;41089;51.448;6.604;2022-08-21T04:39:41;10.45;;;7.32;;
55220;SDS011;41089;51.448;6.604;2022-08-21T04:45:44;8.35;;;7.47;;
55220;SDS011;41089;51.448;6.604;2022-08-21T04:51:47;9.88;;;8.38;;
55220;SDS011;41089;51.448;6.604;2022-08-21T04:57:48;10.57;;;7.32;;
55220;SDS011;41089;51.448;6.604;2022-08-21T05:03:54;9.45;;;7.13;;
55220;SDS011;41089;51.448;6.604;2022-08-21T05:09:56;9.80;;;8.63;;
55220;SDS011;41089;51.448;6.604;2022-08-21T05:15:57;9.57;;;8.20;;
55220;SDS011;41089;51.448;6.604;2022-08-21T05:21:58;13.52;;;8.38;;
55220;SDS011;41089;51.448;6.604;2022-08-21T05:28:00;12.98;;;9.60;;
55220;SDS011;41089;51.448;6.604;2022-08-21T05:34:00;10.70;;;8.23;;
55220;SDS011;41089;51.448;6.604;2022-08-21T05:40:01;13.47;;;7.97;;
55220;SDS011;41089;51.448;6.604;2022-08-21T05:46:02;10.63;;;7.22;;
55220;SDS011;41089;51.448;6.604;2022-08-21T05:52:04;8.88;;;7.90;;
55220;SDS011;41089;51.448;6.604;2022-08-21T05:58:04;10.23;;;7.03;;
55220;SDS011;41089;51.448;6.604;2022-08-21T06:04:05;9.90;;;7.37;;
55220;SDS011;41089;51.448;6.604;2022-08-21T06:10:05;11.70;;;7.15;;
55220;SDS011;41089;51.448;6.604;2022-08-21T06:16:09;9.50;;;6.55;;
55220;SDS011;41089;51.448;6.604;2022-08-21T06:22:12;10.02;;;5.47;;
55220;SDS011;41089;51.448;6.604;2022-08-21T06:28:12;10.83;;;5.43;;
55220;SDS011;41089;51.448;6.604;2022-08-21T06:34:13;9.93;;;6.00;;
55220;SDS011;41089;51.448;6.604;2022-08-21T06:40:14;10.07;;;5.53;;
55220;SDS011;41089;51.448;6.604;2022-08-21T06:46:14;9.27;;;5.17;;
55220;SDS011;41089;51.448;6.604;2022-08-21T06:52:15;10.07;;;5.77;;
55220;SDS011;41089;51.448;6.604;2022-08-21T06:58:15;10.38;;;5.13;;
55220;SDS011;41089;51.448;6.604;2022-08-21T07:04:16;10.13;;;5.10;;
55220;SDS011;41089;51.448;6.604;2022-08-21T07:10:17;7.57;;;4.33;;
55220;SDS011;41089;51.448;6.604;2022-08-21T07:16:18;10.77;;;4.32;;
55220;SDS011;41089;51.448;6.604;2022-08-21T07:22:19;10.75;;;4.80;;
55220;SDS011;41089;51.448;6.604;2022-08-21T07:28:21;8.48;;;4.32;;
55220;SDS011;41089;51.448;6.604;2022-08-21T07:34:22;12.33;;;3.27;;
55220;SDS011;41089;51.448;6.604;2022-08-21T07:40:22;6.53;;;2.43;;
55220;SDS011;41089;51.448;6.604;2022-08-21T07:46:25;7.88;;;3.30;;
55220;SDS011;41089;51.448;6.604;2022-08-21T07:52:32;10.70;;;2.80;;
55220;SDS011;41089;51.448;6.604;2022-08-21T07:58:33;13.02;;;4.25;;
55220;SDS011;41089;51.448;6.604;2022-08-21T08:04:35;6.43;;;2.50;;
55220;SDS011;41089;51.448;6.604;2022-08-21T08:10:37;6.65;;;2.55;;
55220;SDS011;41089;51.448;6.604;2022-08-21T08:16:38;7.20;;;2.22;;
55220;SDS011;41089;51.448;6.604;2022-08-21T08:22:39;5.75;;;1.70;;
55220;SDS011;41089;51.448;6.604;2022-08-21T08:28:41;5.35;;;1.80;;
55220;SDS011;41089;51.448;6.604;2022-08-21T08:34:42;6.15;;;1.75;;
55220;SDS011;41089;51.448;6.604;2022-08-21T08:40:44;5.22;;;1.50;;
55220;SDS011;41089;51.448;6.604;2022-08-21T08:46:48;3.40;;;1.80;;
55220;SDS011;41089;51.448;6.604;2022-08-21T08:52:54;5.72;;;2.00;;
55220;SDS011;41089;51.448;6.604;2022-08-21T08:59:02;5.13;;;1.92;;
55220;SDS011;41089;51.448;6.604;2022-08-21T09:05:07;8.48;;;2.20;;
55220;SDS011;41089;51.448;6.604;2022-08-21T09:17:21;7.30;;;2.17;;
55220;SDS011;41089;51.448;6.604;2022-08-21T09:24:08;9.65;;;2.03;;
55220;SDS011;41089;51.448;6.604;2022-08-21T09:30:40;8.57;;;2.20;;
55220;SDS011;41089;51.448;6.604;2022-08-21T09:36:48;7.15;;;2.40;;
55220;SDS011;41089;51.448;6.604;2022-08-21T09:49:28;10.20;;;2.35;;
55220;SDS011;41089;51.448;6.604;2022-08-21T09:56:33;6.03;;;2.00;;
55220;SDS011;41089;51.448;6.604;2022-08-21T10:02:33;6.20;;;2.28;;
55220;SDS011;41089;51.448;6.604;2022-08-21T10:08:35;5.15;;;2.35;;
55220;SDS011;41089;51.448;6.604;2022-08-21T10:21:01;5.03;;;1.50;;
55220;SDS011;41089;51.448;6.604;2022-08-21T10:27:16;3.03;;;1.50;;
55220;SDS011;41089;51.448;6.604;2022-08-21T10:33:36;3.53;;;1.40;;
55220;SDS011;41089;51.448;6.604;2022-08-21T11:05:41;1.77;;;1.10;;
55220;SDS011;41089;51.448;6.604;2022-08-21T11:17:59;3.67;;;1.38;;
55220;SDS011;41089;51.448;6.604;2022-08-21T11:30:23;2.53;;;1.52;;
55220;SDS011;41089;51.448;6.604;2022-08-21T11:36:30;5.00;;;1.55;;
55220;SDS011;41089;51.448;6.604;2022-08-21T11:55:18;3.33;;;1.60;;
55220;SDS011;41089;51.448;6.604;2022-08-21T12:01:25;3.25;;;1.35;;
55220;SDS011;41089;51.448;6.604;2022-08-21T12:13:51;4.60;;;2.10;;
55220;SDS011;41089;51.448;6.604;2022-08-21T12:19:59;4.32;;;1.10;;
55220;SDS011;41089;51.448;6.604;2022-08-21T12:26:19;4.55;;;1.85;;
55220;SDS011;41089;51.448;6.604;2022-08-21T12:32:30;3.10;;;1.13;;
55220;SDS011;41089;51.448;6.604;2022-08-21T12:44:50;3.72;;;1.23;;
55220;SDS011;41089;51.448;6.604;2022-08-21T12:51:05;3.92;;;1.13;;
55220;SDS011;41089;51.448;6.604;2022-08-21T12:57:17;4.93;;;1.25;;
55220;SDS011;41089;51.448;6.604;2022-08-21T13:03:21;3.72;;;1.30;;
55220;SDS011;41089;51.448;6.604;2022-08-21T13:09:24;3.42;;;1.40;;
55220;SDS011;41089;51.448;6.604;2022-08-21T13:15:37;3.88;;;1.27;;
55220;SDS011;41089;51.448;6.604;2022-08-21T13:21:41;5.28;;;1.75;;
55220;SDS011;41089;51.448;6.604;2022-08-21T13:27:44;2.28;;;1.38;;
55220;SDS011;41089;51.448;6.604;2022-08-21T13:33:56;5.88;;;2.63;;
55220;SDS011;41089;51.448;6.604;2022-08-21T13:39:56;3.58;;;1.63;;
55220;SDS011;41089;51.448;6.604;2022-08-21T13:45:57;6.80;;;2.47;;
55220;SDS011;41089;51.448;6.604;2022-08-21T13:51:58;5.57;;;2.03;;
55220;SDS011;41089;51.448;6.604;2022-08-21T13:57:59;4.15;;;1.92;;
55220;SDS011;41089;51.448;6.604;2022-08-21T14:04:23;4.20;;;1.40;;
55220;SDS011;41089;51.448;6.604;2022-08-21T14:10:22;5.47;;;1.73;;
55220;SDS011;41089;51.448;6.604;2022-08-21T14:16:24;4.20;;;1.80;;
55220;SDS011;41089;51.448;6.604;2022-08-21T14:22:44;10.15;;;3.22;;
55220;SDS011;41089;51.448;6.604;2022-08-21T14:28:47;8.57;;;1.85;;
55220;SDS011;41089;51.448;6.604;2022-08-21T14:34:48;4.77;;;1.43;;
55220;SDS011;41089;51.448;6.604;2022-08-21T14:40:49;7.60;;;1.90;;
55220;SDS011;41089;51.448;6.604;2022-08-21T14:46:52;3.72;;;1.67;;
55220;SDS011;41089;51.448;6.604;2022-08-21T14:52:52;5.35;;;1.70;;
55220;SDS011;41089;51.448;6.604;2022-08-21T14:58:53;3.63;;;1.40;;
55220;SDS011;41089;51.448;6.604;2022-08-21T15:04:55;5.88;;;1.63;;
55220;SDS011;41089;51.448;6.604;2022-08-21T15:10:56;3.90;;;1.67;;
55220;SDS011;41089;51.448;6.604;2022-08-21T15:16:57;2.67;;;1.50;;
55220;SDS011;41089;51.448;6.604;2022-08-21T15:22:57;2.58;;;1.30;;
55220;SDS011;41089;51.448;6.604;2022-08-21T15:28:59;8.38;;;2.13;;
55220;SDS011;41089;51.448;6.604;2022-08-21T15:35:00;3.03;;;1.25;;
55220;SDS011;41089;51.448;6.604;2022-08-21T15:41:03;2.35;;;1.27;;
55220;SDS011;41089;51.448;6.604;2022-08-21T15:47:04;5.63;;;1.48;;
55220;SDS011;41089;51.448;6.604;2022-08-21T15:53:04;3.92;;;1.50;;
55220;SDS011;41089;51.448;6.604;2022-08-21T15:59:12;4.00;;;1.75;;
55220;SDS011;41089;51.448;6.604;2022-08-21T16:05:15;4.53;;;1.58;;
55220;SDS011;41089;51.448;6.604;2022-08-21T16:11:19;4.03;;;1.63;;
55220;SDS011;41089;51.448;6.604;2022-08-21T16:17:21;3.55;;;1.67;;
55220;SDS011;41089;51.448;6.604;2022-08-21T16:23:25;6.07;;;1.52;;
55220;SDS011;41089;51.448;6.604;2022-08-21T16:29:26;4.55;;;1.33;;
55220;SDS011;41089;51.448;6.604;2022-08-21T16:35:48;4.68;;;1.83;;
55220;SDS011;41089;51.448;6.604;2022-08-21T16:41:48;5.37;;;1.70;;
55220;SDS011;41089;51.448;6.604;2022-08-21T16:47:50;3.88;;;1.80;;
55220;SDS011;41089;51.448;6.604;2022-08-21T16:53:51;4.35;;;1.55;;
55220;SDS011;41089;51.448;6.604;2022-08-21T16:59:52;3.65;;;1.63;;
55220;SDS011;41089;51.448;6.604;2022-08-21T17:05:53;5.43;;;1.70;;
55220;SDS011;41089;51.448;6.604;2022-08-21T17:11:53;2.77;;;1.40;;
55220;SDS011;41089;51.448;6.604;2022-08-21T17:17:54;5.77;;;1.83;;
55220;SDS011;41089;51.448;6.604;2022-08-21T17:23:55;7.38;;;2.35;;
55220;SDS011;41089;51.448;6.604;2022-08-21T17:29:56;4.57;;;1.80;;
55220;SDS011;41089;51.448;6.604;2022-08-21T17:35:56;2.45;;;1.55;;
55220;SDS011;41089;51.448;6.604;2022-08-21T17:41:57;4.43;;;1.90;;
55220;SDS011;41089;51.448;6.604;2022-08-21T17:48:01;4.15;;;1.70;;
55220;SDS011;41089;51.448;6.604;2022-08-21T17:54:02;5.38;;;2.25;;
55220;SDS011;41089;51.448;6.604;2022-08-21T18:00:04;4.65;;;1.80;;
55220;SDS011;41089;51.448;6.604;2022-08-21T18:06:07;6.40;;;1.92;;
55220;SDS011;41089;51.448;6.604;2022-08-21T18:12:08;7.38;;;1.92;;
55220;SDS011;41089;51.448;6.604;2022-08-21T18:18:09;6.78;;;1.95;;
55220;SDS011;41089;51.448;6.604;2022-08-21T18:24:09;4.00;;;1.93;;
55220;SDS011;41089;51.448;6.604;2022-08-21T18:30:11;5.13;;;2.30;;
55220;SDS011;41089;51.448;6.604;2022-08-21T18:36:13;4.78;;;2.20;;
55220;SDS011;41089;51.448;6.604;2022-08-21T18:42:14;4.30;;;2.20;;
55220;SDS011;41089;51.448;6.604;2022-08-21T18:48:15;6.72;;;3.25;;
55220;SDS011;41089;51.448;6.604;2022-08-21T18:54:16;5.35;;;2.10;;
55220;SDS011;41089;51.448;6.604;2022-08-21T19:00:20;5.20;;;2.13;;
55220;SDS011;41089;51.448;6.604;2022-08-21T19:06:22;6.13;;;2.15;;
55220;SDS011;41089;51.448;6.604;2022-08-21T19:12:23;10.15;;;2.88;;
55220;SDS011;41089;51.448;6.604;2022-08-21T19:18:25;5.82;;;2.35;;
55220;SDS011;41089;51.448;6.604;2022-08-21T19:24:26;8.30;;;2.55;;
55220;SDS011;41089;51.448;6.604;2022-08-21T19:30:28;5.00;;;2.40;;
55220;SDS011;41089;51.448;6.604;2022-08-21T19:36:30;5.50;;;2.50;;
55220;SDS011;41089;51.448;6.604;2022-08-21T19:42:31;9.73;;;2.25;;
55220;SDS011;41089;51.448;6.604;2022-08-21T19:48:34;3.85;;;1.90;;
55220;SDS011;41089;51.448;6.604;2022-08-21T19:54:36;6.55;;;1.90;;
55220;SDS011;41089;51.448;6.604;2022-08-21T20:00:36;6.57;;;2.10;;
55220;SDS011;41089;51.448;6.604;2022-08-21T20:06:37;6.43;;;2.00;;
55220;SDS011;41089;51.448;6.604;2022-08-21T20:12:38;7.20;;;2.60;;
55220;SDS011;41089;51.448;6.604;2022-08-21T20:18:39;6.60;;;2.47;;
55220;SDS011;41089;51.448;6.604;2022-08-21T20:24:40;6.22;;;2.08;;
55220;SDS011;41089;51.448;6.604;2022-08-21T20:30:41;6.50;;;2.20;;
55220;SDS011;41089;51.448;6.604;2022-08-21T20:36:42;7.00;;;2.50;;
55220;SDS011;41089;51.448;6.604;2022-08-21T20:42:47;5.78;;;2.30;;
55220;SDS011;41089;51.448;6.604;2022-08-21T20:48:48;6.65;;;2.28;;
55220;SDS011;41089;51.448;6.604;2022-08-21T20:54:51;10.57;;;2.40;;
55220;SDS011;41089;51.448;6.604;2022-08-21T21:00:54;6.30;;;2.25;;
55220;SDS011;41089;51.448;6.604;2022-08-21T21:06:55;6.93;;;2.42;;
55220;SDS011;41089;51.448;6.604;2022-08-21T21:12:58;8.23;;;2.38;;
55220;SDS011;41089;51.448;6.604;2022-08-21T21:25:20;5.32;;;2.38;;
55220;SDS011;41089;51.448;6.604;2022-08-21T21:31:25;5.35;;;2.95;;
55220;SDS011;41089;51.448;6.604;2022-08-21T21:37:38;5.35;;;2.13;;
55220;SDS011;41089;51.448;6.604;2022-08-21T21:44:04;5.95;;;2.42;;
55220;SDS011;41089;51.448;6.604;2022-08-21T22:03:08;6.40;;;2.78;;
55220;SDS011;41089;51.448;6.604;2022-08-21T22:15:33;7.50;;;2.92;;
55220;SDS011;41089;51.448;6.604;2022-08-21T22:21:35;9.40;;;2.65;;
55220;SDS011;41089;51.448;6.604;2022-08-21T22:27:36;6.20;;;2.42;;
55220;SDS011;41089;51.448;6.604;2022-08-21T22:33:38;5.32;;;2.25;;
55220;SDS011;41089;51.448;6.604;2022-08-21T22:39:41;11.57;;;2.90;;
55220;SDS011;41089;51.448;6.604;2022-08-21T22:58:12;4.43;;;2.28;;
55220;SDS011;41089;51.448;6.604;2022-08-21T23:04:20;6.22;;;2.58;;
55220;SDS011;41089;51.448;6.604;2022-08-21T23:10:25;6.95;;;2.58;;
55220;SDS011;41089;51.448;6.604;2022-08-21T23:17:26;4.65;;;2.47;;
55220;SDS011;41089;51.448;6.604;2022-08-21T23:35:21;7.20;;;3.08;;
